Time;durP1;ratioP1;P1;durP2;ratioP2;P2;SDS_P1;SDS_P2;PMS_P1;PMS_P2;Temp;Humidity;BMP_temperature;BMP_pressure;BME280_temperature;BME280_humidity;BME280_pressure;Samples;Min_cycle;Max_cycle;Signal;HPM_P1;HPM_P2
2022/04/04 00:01:27;;;;;;;9.48;3.80;;;3.10;99.90;;;;;;4948111;28;20051;-77
2022/04/04 00:03:53;;;;;;;10.02;3.53;;;3.20;99.90;;;;;;4944686;28;265663;-76
2022/04/04 00:06:20;;;;;;;11.07;4.05;;;3.20;99.90;;;;;;4932469;28;20042;-76
2022/04/04 00:08:47;;;;;;;10.90;4.07;;;3.20;99.90;;;;;;4957794;28;20066;-76
2022/04/04 00:11:14;;;;;;;12.23;4.38;;;3.20;99.90;;;;;;4916188;28;20581;-76
2022/04/04 00:13:41;;;;;;;9.82;3.95;;;3.20;99.90;;;;;;4969506;28;20509;-76
2022/04/04 00:16:07;;;;;;;13.05;4.30;;;3.30;99.90;;;;;;4929473;28;257300;-76
2022/04/04 00:18:34;;;;;;;12.07;4.45;;;3.30;99.90;;;;;;4970774;28;20240;-76
2022/04/04 00:21:00;;;;;;;11.98;4.20;;;3.30;99.90;;;;;;4932635;28;244397;-76
2022/04/04 00:23:26;;;;;;;12.65;4.38;;;3.30;99.90;;;;;;4955854;28;20055;-76
2022/04/04 00:25:54;;;;;;;9.43;4.00;;;3.40;99.90;;;;;;4930598;28;79638;-76
2022/04/04 00:28:20;;;;;;;10.73;4.40;;;3.40;99.90;;;;;;4959347;28;20043;-76
2022/04/04 00:30:46;;;;;;;10.38;4.47;;;3.40;99.90;;;;;;4926674;28;270884;-76
2022/04/04 00:33:12;;;;;;;11.57;4.43;;;3.40;99.90;;;;;;4942396;28;20055;-76
2022/04/04 00:35:38;;;;;;;13.45;4.47;;;3.40;99.90;;;;;;4920970;28;176435;-76
2022/04/04 00:38:08;;;;;;;12.35;4.38;;;3.40;99.90;;;;;;4949242;28;20066;-76
2022/04/04 00:40:35;;;;;;;11.02;4.30;;;3.40;99.90;;;;;;4938463;28;106666;-76
2022/04/04 00:43:01;;;;;;;10.40;4.50;;;3.40;99.90;;;;;;4949606;28;20047;-76
2022/04/04 00:45:27;;;;;;;10.35;4.63;;;3.50;99.90;;;;;;4944831;28;239370;-76
2022/04/04 00:47:53;;;;;;;10.82;5.03;;;3.40;99.90;;;;;;4923837;28;20046;-76
2022/04/04 00:50:19;;;;;;;14.45;5.05;;;3.50;99.90;;;;;;4958390;28;256158;-76
2022/04/04 00:52:46;;;;;;;10.70;4.82;;;3.50;99.90;;;;;;4930861;28;20544;-76
2022/04/04 00:55:12;;;;;;;13.85;5.35;;;3.40;99.90;;;;;;4964806;28;89046;-76
2022/04/04 00:57:38;;;;;;;9.55;4.90;;;3.50;99.90;;;;;;4931644;28;20044;-76
2022/04/04 01:00:07;;;;;;;9.68;5.03;;;3.50;99.90;;;;;;4971730;28;20070;-76
2022/04/04 01:02:33;;;;;;;11.13;5.50;;;3.50;99.90;;;;;;4952207;28;20046;-76
2022/04/04 01:04:59;;;;;;;10.93;5.82;;;3.50;99.90;;;;;;4917030;28;209377;-76
2022/04/04 01:07:25;;;;;;;12.27;5.30;;;3.50;99.90;;;;;;4919053;28;20047;-76
2022/04/04 01:09:51;;;;;;;12.05;5.72;;;3.50;99.90;;;;;;4937919;28;103661;-76
2022/04/04 01:12:19;;;;;;;12.98;5.45;;;3.50;99.90;;;;;;4933458;28;20048;-76
2022/04/04 01:14:48;;;;;;;10.68;5.18;;;3.50;99.90;;;;;;4942213;28;29757;-76
2022/04/04 01:17:15;;;;;;;12.45;6.30;;;3.50;99.90;;;;;;4923226;28;20503;-76
2022/04/04 01:19:42;;;;;;;13.45;6.03;;;3.60;99.90;;;;;;4945224;28;63666;-76
2022/04/04 01:22:11;;;;;;;13.80;6.13;;;3.60;99.90;;;;;;4924479;28;20050;-76
2022/04/04 01:24:38;;;;;;;13.80;6.88;;;3.60;99.90;;;;;;4950687;28;117835;-76
2022/04/04 01:27:09;;;;;;;13.65;6.60;;;3.70;99.90;;;;;;4934841;28;20051;-76
2022/04/04 01:29:36;;;;;;;14.90;6.93;;;3.70;99.90;;;;;;4941274;28;155383;-76
2022/04/04 01:32:04;;;;;;;11.82;6.70;;;3.70;99.90;;;;;;4926375;28;20051;-76
2022/04/04 01:34:30;;;;;;;17.92;7.53;;;3.70;99.90;;;;;;4940205;28;254624;-76
2022/04/04 01:36:57;;;;;;;14.07;7.85;;;3.70;99.90;;;;;;4925599;28;20103;-76
2022/04/04 01:39:23;;;;;;;14.73;8.48;;;3.70;99.90;;;;;;4941107;28;27153;-76
2022/04/04 01:41:50;;;;;;;15.48;7.65;;;3.80;99.90;;;;;;4928540;28;20047;-76
2022/04/04 01:44:17;;;;;;;14.75;8.82;;;3.80;99.90;;;;;;4943264;28;32133;-76
2022/04/04 01:46:43;;;;;;;16.27;8.80;;;3.80;99.90;;;;;;4923974;28;20050;-77
2022/04/04 01:49:10;;;;;;;17.23;9.40;;;3.80;99.90;;;;;;4918176;28;248862;-76
2022/04/04 01:51:38;;;;;;;20.23;9.85;;;3.80;99.90;;;;;;4946945;28;20046;-76
2022/04/04 01:54:05;;;;;;;15.73;8.65;;;3.80;99.90;;;;;;4962761;28;259499;-77
2022/04/04 01:56:31;;;;;;;16.65;10.18;;;3.90;99.90;;;;;;4933557;28;20058;-77
2022/04/04 01:58:59;;;;;;;17.10;10.35;;;3.90;99.90;;;;;;4957909;28;274765;-77
2022/04/04 02:01:26;;;;;;;18.20;9.93;;;3.80;99.90;;;;;;4931176;28;20044;-77
2022/04/04 02:03:54;;;;;;;19.95;9.45;;;3.90;99.90;;;;;;4945863;28;259895;-75
2022/04/04 02:06:20;;;;;;;15.55;9.57;;;3.90;99.90;;;;;;4947935;28;20123;-76
2022/04/04 02:08:48;;;;;;;16.80;10.55;;;3.90;99.90;;;;;;4925580;28;20528;-77
2022/04/04 02:11:15;;;;;;;16.73;10.27;;;3.90;99.90;;;;;;4932456;28;20388;-76
2022/04/04 02:13:42;;;;;;;16.55;10.18;;;3.90;99.90;;;;;;4955242;28;20055;-76
2022/04/04 02:16:09;;;;;;;17.85;10.85;;;3.90;99.90;;;;;;4915244;28;193835;-77
2022/04/04 02:18:35;;;;;;;16.77;11.07;;;4.00;99.90;;;;;;4955751;28;20508;-76
2022/04/04 02:21:04;;;;;;;18.02;11.77;;;4.00;99.90;;;;;;4917380;28;213660;-77
2022/04/04 02:23:30;;;;;;;16.75;10.80;;;4.00;99.90;;;;;;4960647;28;20444;-77
2022/04/04 02:25:56;;;;;;;18.85;11.05;;;4.00;99.90;;;;;;4923520;28;59292;-76
2022/04/04 02:28:23;;;;;;;18.67;11.43;;;4.00;99.90;;;;;;4972279;28;20059;-77
2022/04/04 02:30:50;;;;;;;18.90;11.68;;;4.10;99.90;;;;;;4923792;28;32861;-74
2022/04/04 02:33:17;;;;;;;19.00;10.60;;;4.10;99.90;;;;;;4939539;28;20059;-76
2022/04/04 02:35:44;;;;;;;19.20;12.00;;;4.10;99.90;;;;;;4937273;28;98836;-76
2022/04/04 02:38:11;;;;;;;18.02;10.75;;;4.10;99.90;;;;;;4936584;28;20062;-75
2022/04/04 02:40:39;;;;;;;16.83;11.80;;;4.10;99.90;;;;;;4924753;28;167599;-75
2022/04/04 02:43:06;;;;;;;20.60;11.00;;;4.20;99.90;;;;;;4926758;28;20062;-77
2022/04/04 02:45:32;;;;;;;18.83;11.63;;;4.10;99.90;;;;;;4919054;28;125951;-75
2022/04/04 02:47:59;;;;;;;19.52;10.73;;;4.20;99.90;;;;;;4927482;28;20500;-76
2022/04/04 02:50:25;;;;;;;18.50;11.20;;;4.30;99.90;;;;;;4951431;28;187126;-76
2022/04/04 02:52:52;;;;;;;23.88;11.90;;;4.30;99.90;;;;;;4928217;28;20047;-77
2022/04/04 02:58:03;;;;;;;18.52;11.27;;;4.30;99.90;;;;;;4896461;28;20173;-76
2022/04/04 03:00:30;;;;;;;17.85;10.85;;;4.40;99.90;;;;;;4924977;28;58741;-75
2022/04/04 03:02:57;;;;;;;20.75;12.02;;;4.40;99.90;;;;;;4941913;28;20070;-76
2022/04/04 03:05:24;;;;;;;19.17;11.13;;;4.50;99.90;;;;;;4923899;28;241775;-74
2022/04/04 03:07:51;;;;;;;19.88;11.98;;;4.50;99.90;;;;;;4927736;28;20059;-76
2022/04/04 03:10:18;;;;;;;19.88;11.20;;;4.60;99.90;;;;;;4963256;28;106199;-76
2022/04/04 03:12:46;;;;;;;23.60;11.75;;;4.60;99.90;;;;;;4911957;28;20043;-76
2022/04/04 03:15:16;;;;;;;22.58;11.90;;;4.60;99.90;;;;;;4939069;28;241462;-76
2022/04/04 03:17:43;;;;;;;21.17;12.23;;;4.70;99.90;;;;;;4930642;28;20043;-76
2022/04/04 03:20:11;;;;;;;20.30;13.00;;;4.70;99.90;;;;;;4943333;28;185269;-76
2022/04/04 03:22:43;;;;;;;24.05;12.18;;;4.70;99.90;;;;;;4914610;28;20420;-76
2022/04/04 03:25:11;;;;;;;22.67;12.27;;;4.70;99.90;;;;;;4939016;28;20062;-76
2022/04/04 03:27:39;;;;;;;20.55;11.70;;;4.80;99.90;;;;;;4936655;28;20055;-75
2022/04/04 03:30:10;;;;;;;21.88;11.70;;;4.80;99.90;;;;;;4956747;28;110066;-76
2022/04/04 03:32:37;;;;;;;21.13;11.85;;;4.80;99.90;;;;;;4922397;28;20408;-75
2022/04/04 03:35:04;;;;;;;20.67;12.35;;;4.80;99.90;;;;;;4949970;28;175306;-76
2022/04/04 03:37:32;;;;;;;20.40;13.27;;;4.90;99.90;;;;;;4933712;28;20043;-75
2022/04/04 03:39:58;;;;;;;23.77;13.50;;;4.90;99.90;;;;;;4942175;28;130119;-75
2022/04/04 03:42:24;;;;;;;22.55;12.45;;;4.90;99.90;;;;;;4921956;28;20514;-76
2022/04/04 03:44:50;;;;;;;20.23;12.30;;;4.90;99.90;;;;;;4942031;28;145523;-76
2022/04/04 03:47:16;;;;;;;20.83;12.20;;;4.90;99.90;;;;;;4920208;28;20050;-76
2022/04/04 03:49:42;;;;;;;22.58;12.55;;;4.90;99.90;;;;;;4966169;28;79616;-75
2022/04/04 03:52:09;;;;;;;21.95;11.95;;;5.00;99.90;;;;;;4945387;28;20062;-75
2022/04/04 03:54:35;;;;;;;25.95;12.45;;;4.90;99.90;;;;;;4968235;28;60518;-76
2022/04/04 03:57:03;;;;;;;24.30;12.55;;;4.90;99.90;;;;;;4932452;28;20125;-76
2022/04/04 03:59:29;;;;;;;19.15;10.82;;;5.00;99.90;;;;;;4940938;28;149233;-75
2022/04/04 04:01:55;;;;;;;21.23;11.30;;;5.00;99.90;;;;;;4940069;28;20520;-75
2022/04/04 04:04:21;;;;;;;23.80;11.38;;;5.00;99.90;;;;;;4925074;28;255336;-75
2022/04/04 04:06:47;;;;;;;21.13;11.98;;;5.10;99.90;;;;;;4946859;28;20039;-76
2022/04/04 04:09:14;;;;;;;20.77;11.73;;;5.10;99.90;;;;;;4974312;28;20992;-76
2022/04/04 04:11:40;;;;;;;22.08;12.95;;;5.10;99.90;;;;;;4924061;28;20073;-76
2022/04/04 04:14:06;;;;;;;22.35;12.25;;;5.00;99.90;;;;;;4934197;28;271432;-77
2022/04/04 04:16:32;;;;;;;23.60;12.65;;;5.00;99.90;;;;;;4947618;28;20050;-77
2022/04/04 04:18:58;;;;;;;23.63;12.07;;;5.00;99.90;;;;;;4929018;28;273380;-77
2022/04/04 04:21:25;;;;;;;23.40;13.75;;;4.90;99.90;;;;;;4929157;28;20050;-77
2022/04/04 04:23:51;;;;;;;19.77;12.50;;;4.90;99.90;;;;;;4930849;28;267276;-76
2022/04/04 04:26:17;;;;;;;23.20;13.30;;;4.90;99.90;;;;;;4943284;28;20042;-77
2022/04/04 04:28:45;;;;;;;26.70;13.68;;;4.90;99.90;;;;;;4957322;28;20047;-78
2022/04/04 04:31:14;;;;;;;21.95;12.48;;;4.90;99.90;;;;;;4933194;28;180311;-77
2022/04/04 04:33:40;;;;;;;21.40;12.25;;;4.90;99.90;;;;;;4972515;28;20078;-78
2022/04/04 04:36:07;;;;;;;22.38;12.77;;;4.90;99.90;;;;;;4937289;28;106826;-79
2022/04/04 04:38:34;;;;;;;19.33;12.75;;;4.90;99.90;;;;;;4966089;28;20040;-77
2022/04/04 04:41:01;;;;;;;20.77;12.07;;;4.90;99.90;;;;;;4943282;28;48177;-78
2022/04/04 04:43:27;;;;;;;19.27;12.05;;;4.90;99.90;;;;;;4958016;28;20059;-77
2022/04/04 04:45:53;;;;;;;22.45;12.70;;;4.90;99.90;;;;;;4939021;28;150939;-78
2022/04/04 04:48:20;;;;;;;18.70;12.20;;;4.90;99.90;;;;;;4949377;28;20059;-77
2022/04/04 04:50:47;;;;;;;20.73;12.60;;;4.90;99.90;;;;;;4925520;28;89835;-77
2022/04/04 04:53:14;;;;;;;22.90;12.30;;;5.00;99.90;;;;;;4907900;28;20054;-77
2022/04/04 04:55:40;;;;;;;18.00;12.55;;;5.00;99.90;;;;;;4924060;28;90667;-77
2022/04/04 04:58:06;;;;;;;24.88;14.75;;;5.00;99.90;;;;;;4935940;28;20071;-78
2022/04/04 05:00:33;;;;;;;23.58;13.55;;;4.90;99.90;;;;;;4931893;28;235907;-77
2022/04/04 05:05:44;;;;;;;20.25;12.55;;;4.90;99.90;;;;;;4901389;28;84098;-77
2022/04/04 05:08:10;;;;;;;19.52;12.63;;;4.90;99.90;;;;;;4930319;28;20040;-77
2022/04/04 05:10:36;;;;;;;19.92;12.55;;;4.90;99.90;;;;;;4928044;28;75819;-77
2022/04/04 05:13:02;;;;;;;24.33;14.27;;;4.90;99.90;;;;;;4959601;28;20055;-76
2022/04/04 05:15:30;;;;;;;20.23;12.45;;;4.90;99.90;;;;;;4930682;28;120464;-76
2022/04/04 05:17:56;;;;;;;20.70;12.25;;;4.90;99.90;;;;;;4950535;28;20136;-78
2022/04/04 05:20:23;;;;;;;24.42;15.02;;;4.80;99.90;;;;;;4949277;28;53791;-77
2022/04/04 05:22:49;;;;;;;20.80;13.07;;;4.80;99.90;;;;;;4896325;28;20057;-78
2022/04/04 05:25:15;;;;;;;26.08;14.02;;;4.80;99.90;;;;;;4948864;28;217905;-78
2022/04/04 05:27:42;;;;;;;23.50;14.30;;;4.80;99.90;;;;;;4913553;28;20042;-79
2022/04/04 05:30:09;;;;;;;18.23;12.35;;;4.70;99.90;;;;;;4968987;28;104345;-79
2022/04/04 05:32:36;;;;;;;28.05;14.77;;;4.70;99.90;;;;;;4955443;28;20070;-78
2022/04/04 05:35:03;;;;;;;24.77;14.48;;;4.80;99.90;;;;;;4990714;28;43099;-80
2022/04/04 05:37:29;;;;;;;24.77;13.68;;;4.70;99.90;;;;;;4946671;28;20086;-79
2022/04/04 05:39:55;;;;;;;23.92;14.30;;;4.80;99.90;;;;;;4951788;28;188129;-79
2022/04/04 05:42:22;;;;;;;25.58;15.15;;;4.70;99.90;;;;;;4944826;28;20051;-79
2022/04/04 05:44:48;;;;;;;21.52;13.48;;;4.70;99.90;;;;;;4939372;28;20046;-79
2022/04/04 05:47:17;;;;;;;26.25;14.95;;;4.80;99.90;;;;;;4936803;28;20042;-79
2022/04/04 05:49:44;;;;;;;25.17;15.02;;;4.70;99.90;;;;;;4921915;28;228902;-78
2022/04/04 05:52:11;;;;;;;25.85;14.48;;;4.70;99.90;;;;;;4931500;28;20659;-78
2022/04/04 05:54:53;;;;;;;26.17;14.90;;;4.70;99.90;;;;;;4943972;28;20080;-77
2022/04/04 05:57:24;;;;;;;27.08;17.00;;;4.70;99.90;;;;;;4915259;28;20538;-78
2022/04/04 05:59:51;;;;;;;25.58;15.98;;;4.70;99.90;;;;;;4951008;28;231416;-77
2022/04/04 06:02:19;;;;;;;25.65;16.77;;;4.70;99.90;;;;;;4925083;28;20085;-77
2022/04/04 06:04:46;;;;;;;23.83;15.10;;;4.70;99.90;;;;;;4931273;28;149170;-78
2022/04/04 06:07:12;;;;;;;30.70;17.02;;;4.70;99.90;;;;;;4926777;28;20432;-78
2022/04/04 06:09:38;;;;;;;26.52;16.80;;;4.60;99.90;;;;;;4968566;28;141605;-76
2022/04/04 06:12:04;;;;;;;26.17;17.08;;;4.70;99.90;;;;;;4936639;28;20054;-76
2022/04/04 06:14:30;;;;;;;23.75;15.05;;;4.60;99.90;;;;;;4948471;28;255753;-76
2022/04/04 06:16:57;;;;;;;25.38;16.38;;;4.60;99.90;;;;;;4931589;28;20046;-76
2022/04/04 06:19:23;;;;;;;30.02;18.27;;;4.60;99.90;;;;;;4943240;28;261175;-76
2022/04/04 06:21:49;;;;;;;26.95;17.92;;;4.60;99.90;;;;;;4930729;28;20173;-77
2022/04/04 06:24:15;;;;;;;27.23;16.30;;;4.60;99.90;;;;;;4938400;28;151722;-76
2022/04/04 06:26:41;;;;;;;26.85;17.30;;;4.60;99.90;;;;;;4942981;28;20043;-77
2022/04/04 06:29:09;;;;;;;25.05;17.80;;;4.60;99.90;;;;;;4947245;28;257984;-77
2022/04/04 06:31:39;;;;;;;27.80;17.80;;;4.60;99.90;;;;;;4921968;28;20405;-76
2022/04/04 06:34:05;;;;;;;25.37;16.73;;;4.60;99.90;;;;;;4961129;28;270162;-76
2022/04/04 06:36:32;;;;;;;27.88;19.27;;;4.60;99.90;;;;;;4926674;28;20499;-77
2022/04/04 06:38:58;;;;;;;26.15;18.27;;;4.60;99.90;;;;;;4949493;28;273680;-76
2022/04/04 06:41:25;;;;;;;26.35;18.13;;;4.60;99.90;;;;;;4953151;28;20058;-75
2022/04/04 06:43:52;;;;;;;25.73;17.65;;;4.60;99.90;;;;;;4934131;28;258719;-77
2022/04/04 06:46:18;;;;;;;32.47;17.98;;;4.60;99.90;;;;;;4937335;28;20046;-76
2022/04/04 06:48:45;;;;;;;27.02;17.15;;;4.60;99.90;;;;;;4942442;28;20413;-78
2022/04/04 06:51:12;;;;;;;25.40;16.88;;;4.60;99.90;;;;;;4925671;28;146143;-75
2022/04/04 06:53:38;;;;;;;26.20;15.85;;;4.60;99.90;;;;;;4941498;28;20054;-77
2022/04/04 06:56:04;;;;;;;24.65;16.73;;;4.60;99.90;;;;;;4932572;28;250139;-76
2022/04/04 06:58:31;;;;;;;27.63;17.02;;;4.60;99.90;;;;;;4944198;28;20540;-77
2022/04/04 07:00:57;;;;;;;29.77;17.10;;;4.60;99.90;;;;;;4923397;28;47434;-76
2022/04/04 07:03:24;;;;;;;22.25;14.30;;;4.50;99.90;;;;;;4959994;28;20066;-75
2022/04/04 07:05:50;;;;;;;26.02;16.85;;;4.50;99.90;;;;;;4909820;28;148599;-76
2022/04/04 07:08:16;;;;;;;23.67;15.32;;;4.60;99.90;;;;;;4979070;28;20082;-74
2022/04/04 07:10:42;;;;;;;24.17;16.42;;;4.50;99.90;;;;;;4917006;28;216681;-75
2022/04/04 07:13:08;;;;;;;23.15;14.00;;;4.60;99.90;;;;;;4934753;28;20046;-74
2022/04/04 07:15:35;;;;;;;23.45;14.38;;;4.60;99.90;;;;;;4928896;28;250517;-75
2022/04/04 07:18:02;;;;;;;22.23;14.50;;;4.60;99.90;;;;;;4947117;28;20426;-75
2022/04/04 07:20:28;;;;;;;24.83;14.40;;;4.60;99.90;;;;;;4944357;28;192886;-74
2022/04/04 07:22:55;;;;;;;28.33;17.33;;;4.60;99.90;;;;;;4954481;28;20050;-75
2022/04/04 07:25:24;;;;;;;26.73;17.15;;;4.70;99.90;;;;;;4947362;28;75843;-74
2022/04/04 07:27:50;;;;;;;28.83;17.17;;;4.70;99.90;;;;;;4928689;28;20055;-75
2022/04/04 07:30:18;;;;;;;30.80;18.58;;;4.70;99.90;;;;;;4945908;28;122538;-74
2022/04/04 07:32:47;;;;;;;28.30;17.40;;;4.70;99.90;;;;;;4905651;28;20051;-76
2022/04/04 07:35:14;;;;;;;25.08;17.42;;;4.70;99.90;;;;;;4960577;28;203955;-75
2022/04/04 07:37:45;;;;;;;29.65;18.45;;;4.70;99.90;;;;;;4924341;28;20051;-75
2022/04/04 07:40:14;;;;;;;32.05;18.02;;;4.70;99.90;;;;;;4941729;28;233075;-75
2022/04/04 07:42:42;;;;;;;28.05;15.68;;;4.70;99.90;;;;;;4909784;28;20051;-76
2022/04/04 07:45:11;;;;;;;28.42;17.70;;;4.70;99.90;;;;;;4960310;28;237900;-75
2022/04/04 07:47:37;;;;;;;26.40;16.13;;;4.80;99.90;;;;;;4925722;28;20043;-75
2022/04/04 07:50:06;;;;;;;28.20;17.35;;;4.80;99.90;;;;;;4944624;28;117600;-76
2022/04/04 07:52:32;;;;;;;27.13;17.02;;;4.80;99.90;;;;;;4916398;28;20477;-77
2022/04/04 07:54:58;;;;;;;24.35;14.13;;;4.80;99.90;;;;;;4944254;28;77204;-77
2022/04/04 07:57:24;;;;;;;19.83;11.70;;;4.90;99.90;;;;;;4924745;28;20253;-75
2022/04/04 07:59:51;;;;;;;20.92;11.00;;;4.90;99.90;;;;;;4921340;28;30349;-77
2022/04/04 08:02:18;;;;;;;19.23;10.02;;;4.90;99.90;;;;;;4930488;28;20054;-77
2022/04/04 08:04:45;;;;;;;21.52;13.52;;;5.00;99.90;;;;;;4925556;28;183790;-75
2022/04/04 08:07:12;;;;;;;21.77;12.77;;;5.00;99.90;;;;;;4918333;28;20070;-74
2022/04/04 08:09:39;;;;;;;22.27;14.13;;;5.00;99.90;;;;;;4930878;28;130215;-75
2022/04/04 08:12:06;;;;;;;21.60;12.35;;;5.00;99.90;;;;;;4942900;28;20066;-75
2022/04/04 08:14:32;;;;;;;18.10;11.05;;;5.10;99.90;;;;;;4945832;28;61697;-75
2022/04/04 08:17:00;;;;;;;18.45;10.93;;;5.10;99.90;;;;;;4923780;28;20404;-75
2022/04/04 08:19:28;;;;;;;19.80;11.27;;;5.10;99.90;;;;;;4959158;28;20089;-76
2022/04/04 08:21:54;;;;;;;16.42;10.15;;;5.20;99.90;;;;;;4925004;28;20065;-76
2022/04/04 08:24:22;;;;;;;17.42;11.15;;;5.20;99.90;;;;;;4965157;28;20074;-76
2022/04/04 08:26:49;;;;;;;18.20;10.68;;;5.20;99.90;;;;;;4948095;28;20046;-76
2022/04/04 08:29:15;;;;;;;16.85;9.63;;;5.20;99.90;;;;;;4935701;28;203498;-76
2022/04/04 08:31:41;;;;;;;17.77;9.32;;;5.20;99.90;;;;;;4928928;28;20051;-75
2022/04/04 08:34:08;;;;;;;17.88;9.02;;;5.20;99.90;;;;;;4938808;28;253046;-76
2022/04/04 08:36:34;;;;;;;22.20;10.35;;;5.30;99.90;;;;;;4933771;28;20432;-75
2022/04/04 08:39:01;;;;;;;17.23;9.77;;;5.30;99.90;;;;;;4930793;28;262852;-76
2022/04/04 08:41:31;;;;;;;17.25;8.10;;;5.40;99.90;;;;;;4930394;28;20054;-77
2022/04/04 08:44:00;;;;;;;15.80;7.60;;;5.30;99.90;;;;;;4908468;28;262060;-76
2022/04/04 08:46:26;;;;;;;15.63;7.97;;;5.40;99.90;;;;;;4943696;28;20045;-77
2022/04/04 08:48:55;;;;;;;14.77;7.53;;;5.40;99.90;;;;;;4934218;28;255486;-76
2022/04/04 08:51:22;;;;;;;12.32;5.78;;;5.40;99.90;;;;;;4944374;28;20054;-75
2022/04/04 08:53:49;;;;;;;11.85;6.00;;;5.40;99.90;;;;;;4953449;28;266757;-75
2022/04/04 08:56:17;;;;;;;12.85;5.32;;;5.50;99.90;;;;;;4925308;28;20091;-75
2022/04/04 08:58:43;;;;;;;13.40;5.70;;;5.50;99.90;;;;;;4948923;28;20062;-77
2022/04/04 09:01:09;;;;;;;14.40;5.70;;;5.50;99.90;;;;;;4922151;28;27553;-77
2022/04/04 09:03:36;;;;;;;13.07;4.95;;;5.60;99.90;;;;;;4960786;28;20074;-76
2022/04/04 09:06:03;;;;;;;12.38;5.00;;;5.60;99.90;;;;;;4918638;28;133493;-76
2022/04/04 09:08:41;;;;;;;12.82;4.88;;;5.60;99.90;;;;;;4948770;28;20062;-76
2022/04/04 09:11:08;;;;;;;12.13;4.32;;;5.60;99.90;;;;;;4939658;28;41967;-77
2022/04/04 09:13:34;;;;;;;10.63;4.90;;;5.60;99.90;;;;;;4949561;28;20047;-76
2022/04/04 09:16:05;;;;;;;10.75;3.80;;;5.60;99.90;;;;;;4920500;28;249042;-76
2022/04/04 09:18:39;;;;;;;;;;;5.60;99.90;;;;;;4950376;28;20043;-76
2022/04/04 09:21:09;;;;;;;10.43;3.85;;;5.60;99.90;;;;;;4931271;28;238760;-75
2022/04/04 09:23:49;;;;;;;9.10;3.45;;;5.60;99.90;;;;;;4947822;28;20539;-76
2022/04/04 09:26:40;;;;;;;10.82;3.65;;;5.70;99.90;;;;;;4935486;28;20050;-76
2022/04/04 09:29:16;;;;;;;11.80;3.65;;;5.70;99.90;;;;;;4954644;28;270779;-76
2022/04/04 09:31:52;;;;;;;10.30;3.40;;;5.70;99.90;;;;;;4953013;28;20034;-74
2022/04/04 09:34:19;;;;;;;9.10;3.78;;;5.70;99.90;;;;;;4945313;28;62316;-74
2022/04/04 09:36:47;;;;;;;14.43;3.80;;;5.80;99.90;;;;;;4934688;28;20047;-75
2022/04/04 09:39:14;;;;;;;9.85;3.05;;;5.80;99.90;;;;;;4937105;28;225664;-75
2022/04/04 09:41:41;;;;;;;11.10;3.65;;;5.80;99.90;;;;;;4929821;28;20571;-76
2022/04/04 09:44:08;;;;;;;9.60;3.60;;;5.80;99.90;;;;;;4949904;28;250377;-75
2022/04/04 09:46:37;;;;;;;11.13;4.07;;;5.80;99.90;;;;;;4951944;28;20578;-75
2022/04/04 09:49:07;;;;;;;10.88;3.65;;;5.80;99.90;;;;;;4931437;28;272384;-75
2022/04/04 09:51:34;;;;;;;11.77;3.67;;;5.80;99.90;;;;;;4949372;28;20050;-76
2022/04/04 09:54:05;;;;;;;10.73;4.00;;;5.90;99.90;;;;;;4956656;28;271779;-75
2022/04/04 09:56:32;;;;;;;9.38;3.80;;;5.90;99.90;;;;;;4949481;28;20105;-76
2022/04/04 09:59:01;;;;;;;11.53;3.73;;;5.90;99.90;;;;;;4912075;28;255545;-76
2022/04/04 10:01:29;;;;;;;12.60;4.03;;;5.90;99.90;;;;;;4941509;28;20053;-75
2022/04/04 10:03:56;;;;;;;10.25;3.95;;;6.00;99.90;;;;;;4920792;28;256097;-76
2022/04/04 10:06:30;;;;;;;9.90;3.70;;;5.90;99.90;;;;;;4945157;28;20050;-75
2022/04/04 10:08:58;;;;;;;12.68;4.25;;;6.00;99.90;;;;;;4931665;28;271031;-75
2022/04/04 10:11:25;;;;;;;11.38;4.07;;;6.00;99.90;;;;;;4933387;28;20045;-76
2022/04/04 10:13:52;;;;;;;12.50;3.80;;;6.00;99.90;;;;;;4937922;28;259881;-76
2022/04/04 10:16:19;;;;;;;10.45;3.88;;;6.00;99.90;;;;;;4930313;28;20316;-75
2022/04/04 10:18:46;;;;;;;12.07;3.90;;;6.00;99.90;;;;;;4956223;28;20053;-76
2022/04/04 10:21:13;;;;;;;12.60;4.32;;;6.00;99.90;;;;;;4943072;28;21634;-75
2022/04/04 10:23:41;;;;;;;11.50;4.13;;;6.10;99.90;;;;;;4946950;28;20059;-75
2022/04/04 10:26:07;;;;;;;13.93;4.38;;;6.10;99.90;;;;;;4937801;28;207251;-75
2022/04/04 10:28:37;;;;;;;12.57;4.28;;;6.10;99.90;;;;;;4979291;28;20054;-74
2022/04/04 10:31:20;;;;;;;11.73;4.28;;;6.10;99.90;;;;;;4925504;28;212904;-75
2022/04/04 10:33:50;;;;;;;10.75;4.50;;;6.20;99.90;;;;;;4946452;28;20051;-74
2022/04/04 10:36:23;;;;;;;10.70;4.03;;;6.20;99.90;;;;;;4917694;28;20050;-75
2022/04/04 10:38:52;;;;;;;14.00;4.25;;;6.20;99.90;;;;;;4941379;28;274616;-75
2022/04/04 10:41:25;;;;;;;12.80;4.90;;;6.20;99.90;;;;;;4929728;28;20059;-75
2022/04/04 10:43:53;;;;;;;14.02;4.72;;;6.20;99.90;;;;;;4951559;28;260707;-76
2022/04/04 10:46:22;;;;;;;12.68;4.65;;;6.30;99.90;;;;;;4929585;28;20062;-76
2022/04/04 10:48:52;;;;;;;11.93;4.38;;;6.30;99.90;;;;;;4970745;28;20064;-74
2022/04/04 10:51:27;;;;;;;10.27;3.88;;;6.30;99.90;;;;;;4900859;28;20135;-75
2022/04/04 10:53:57;;;;;;;12.20;4.15;;;6.40;99.90;;;;;;4933414;28;271077;-76
2022/04/04 10:56:31;;;;;;;10.70;3.65;;;6.40;99.90;;;;;;4945141;28;20042;-76
2022/04/04 10:59:15;;;;;;;10.40;4.10;;;6.40;99.90;;;;;;4934664;28;268009;-76
2022/04/04 11:01:46;;;;;;;9.15;3.72;;;6.50;99.90;;;;;;4953315;28;20173;-76
2022/04/04 11:04:25;;;;;;;;;;;6.50;99.90;;;;;;4924388;28;161585;-76
2022/04/04 11:09:55;;;;;;;10.27;3.42;;;6.60;99.90;;;;;;4951682;28;196017;-76
2022/04/04 11:12:27;;;;;;;10.88;3.50;;;6.60;99.90;;;;;;4930675;28;20074;-76
2022/04/04 11:15:05;;;;;;;10.77;3.53;;;6.60;99.90;;;;;;4964711;28;120398;-76
2022/04/04 11:17:36;;;;;;;10.20;3.50;;;6.60;99.90;;;;;;4918079;28;20058;-76
2022/04/04 11:20:31;;;;;;;9.45;2.92;;;6.70;99.90;;;;;;4953068;28;117563;-75
2022/04/04 11:23:09;;;;;;;10.57;3.53;;;6.70;99.90;;;;;;4930182;28;20127;-75
2022/04/04 11:25:38;;;;;;;8.48;2.67;;;6.80;99.90;;;;;;4939938;28;59203;-76
2022/04/04 11:28:06;;;;;;;8.25;3.00;;;6.80;99.90;;;;;;4931248;28;20077;-75
2022/04/04 11:30:32;;;;;;;8.98;2.50;;;6.80;99.90;;;;;;4936519;28;161717;-76
2022/04/04 11:32:59;;;;;;;9.35;2.80;;;6.90;99.90;;;;;;4928580;28;20421;-76
2022/04/04 11:35:30;;;;;;;10.40;2.80;;;6.90;99.90;;;;;;4935460;28;236734;-75
2022/04/04 11:38:07;;;;;;;8.35;2.42;;;7.00;99.90;;;;;;4879954;28;20046;-76
2022/04/04 11:40:37;;;;;;;7.55;2.38;;;7.00;99.90;;;;;;4936115;28;130306;-75
2022/04/04 11:43:09;;;;;;;7.72;2.40;;;7.00;99.90;;;;;;4944167;28;20055;-75
2022/04/04 11:45:36;;;;;;;;;;;7.00;99.90;;;;;;4934300;28;173195;-75
2022/04/04 11:48:10;;;;;;;6.50;2.10;;;7.10;99.90;;;;;;4946650;28;19926;-75
2022/04/04 11:50:38;;;;;;;6.10;1.88;;;7.10;99.90;;;;;;4930767;28;220070;-76
2022/04/04 11:53:10;;;;;;;7.45;2.10;;;7.10;99.90;;;;;;4924611;28;20232;-76
2022/04/04 11:55:39;;;;;;;6.57;2.00;;;7.20;99.90;;;;;;4927601;28;260509;-75
2022/04/04 11:58:10;;;;;;;6.10;1.80;;;7.10;99.90;;;;;;4941513;28;21098;-75
2022/04/04 12:00:39;;;;;;;7.13;2.10;;;7.10;99.90;;;;;;4935372;28;62038;-75
2022/04/04 12:03:11;;;;;;;7.30;2.00;;;7.10;99.90;;;;;;4941425;28;20514;-74
2022/04/04 12:05:42;;;;;;;7.47;1.83;;;7.20;99.90;;;;;;4917645;28;240744;-75
2022/04/04 12:08:12;;;;;;;6.00;1.73;;;7.20;99.90;;;;;;4944323;28;20062;-75
2022/04/04 12:10:40;;;;;;;7.13;1.90;;;7.30;99.90;;;;;;4937074;28;144160;-75
2022/04/04 12:13:10;;;;;;;6.43;1.80;;;7.30;99.90;;;;;;4928596;28;20492;-75
2022/04/04 12:15:40;;;;;;;6.95;1.73;;;7.30;99.90;;;;;;4939872;28;20054;-75
2022/04/04 12:18:09;;;;;;;5.45;1.52;;;7.30;99.90;;;;;;4953041;28;20389;-74
2022/04/04 12:20:38;;;;;;;7.15;2.13;;;7.30;99.90;;;;;;4905628;28;244918;-75
2022/04/04 12:25:57;;;;;;;6.38;1.63;;;7.30;99.90;;;;;;4940306;28;74298;-77
2022/04/04 12:28:26;;;;;;;8.63;1.90;;;7.30;99.90;;;;;;4976493;28;20059;-77
2022/04/04 12:30:53;;;;;;;5.53;1.67;;;7.30;99.90;;;;;;4913048;28;142223;-77
2022/04/04 12:33:29;;;;;;;7.75;1.80;;;7.40;99.90;;;;;;4960142;28;20425;-76
2022/04/04 12:35:55;;;;;;;6.80;2.00;;;7.50;99.90;;;;;;4937155;28;92165;-77
2022/04/04 12:38:52;;;;;;;6.13;2.00;;;7.50;99.90;;;;;;4960133;28;20512;-77
2022/04/04 12:41:18;;;;;;;5.75;1.90;;;7.50;99.90;;;;;;4860094;29;20059;-78
2022/04/04 12:43:46;;;;;;;6.47;1.98;;;7.50;99.90;;;;;;4916844;28;20070;-76
2022/04/04 12:46:29;;;;;;;6.03;1.88;;;7.50;99.90;;;;;;4897113;28;61940;-77
2022/04/04 12:49:10;;;;;;;6.20;1.80;;;7.60;99.90;;;;;;4906228;28;36079;-77
2022/04/04 12:51:38;;;;;;;6.28;1.90;;;7.60;99.90;;;;;;4887091;28;20065;-77
2022/04/04 12:54:04;;;;;;;6.82;2.00;;;7.60;99.90;;;;;;4921822;28;208557;-77
2022/04/04 12:56:47;;;;;;;4.90;1.60;;;7.60;99.90;;;;;;4902341;28;20394;-78